Kenai, AK

4:11 AM AKST on December 11, 2016 (GMT -0900)
coastal | | Change Station

Elev 90 ft 60.57 °N, 151.29 °W | Updated 27 seconds ago

Clear
Clear
-5.5 °F
Feels Like -6 °F
N
0.0
Wind Variable Wind from NE

Today
High -- | Low -- °F
--% Chance of Precip.
Yesterday
High -- | Low -- °F
Precip. -- in
Pressure 30.34 in
Visibility 10.0 miles
Clouds Clear
Windchill -6 °F
Dew Point -8 °F
Humidity 86%
Rainfall 0.00 in
Snow Depth Not available.
10:03 AM 3:53 PM
Waxing Gibbous, 91% visible
METAR PAEN 111253Z AUTO 02003KT 10SM CLR M22/M24 A3032 RMK AO2 SLP273 T12221244 TSNO
Pressure 30.34 in
Visibility 10.0 miles
Clouds Clear
Windchill -6 °F
Dew Point -8 °F
Humidity 86%
Rainfall 0.00 in
Snow Depth Not available.
10:03 AM 3:53 PM
Waxing Gibbous, 91% visible
METAR PAEN 111253Z AUTO 02003KT 10SM CLR M22/M24 A3032 RMK AO2 SLP273 T12221244 TSNO

10-Day Weather Forecast

Almanac

Astronomy

Dec. 11, 2016 Rise Set
Actual Time
Civil Twilight
Nautical Twilight
Astronomical Twilight
Moon
Length of Visible Light
Length of Day
Tomorrow will be .
, % of the Moon is Illuminated

Today's Extremes

State Highs State Lows

Community

WunderPhotos

Upload Photos

1,956,714 photos uploaded!

WunderBlog® & News

Nearby

Air Quality

  Air Quality AQ Index Pollutant
Not available.

Snow Depth

Station Depth Elevation

Earthquake Activity

City Distance Mag. Time & Date
Minimum magnitude displayed is 2.5.

Coastal Water Temperatures

Place Temperature

Stations

Nearby Weather Stations

Station Location Temp. Windchill Dew Point Humidity Wind Precip. Elev Updated Type
                   

Watches & Warnings

There are currently no watches in effect.